Flood From: 21-02-2018 18:00 Until: 22-02-2018 16:00 warning for: Flood Level: Yellow info button

Although rather usual in this region, locally or potentially dangerous phenomena are expected. (such as local winds, summer thunderstorms, rising streams or high waves) Be aware and pay attention to the latest weather updates, especially if you carry out activities exposed to weather or close to a stream or shoreline. 


Meteo18 Weather Cam more information Meteo18 Weather Cam


Thunder radar more information blitzortung!


Rain radar more information rain snow radar


Visit our other weather sites:

Template documentation
and downloads

And another site



Weather Underground History page Text

Daily Summary for November 20, 2017 Units:  Both    English   Metric
« Previous Day
Next Day »
Daily Weekly Monthly Yearly Custom
  High: Low: Average:
Temperature: TemperatureC °F /  -17.8 °C 2.2 °F /  -16.6 °C 5.9 °F /  -14.5 °C
Dew Point: DewpointC °F /  -17.8 °C 1.6 °F /  -16.9 °C 5.1 °F /  -14.9 °C
Humidity: Humidity % 90 % 94 %
Wind Speed: WindSpeedKMH mph /  0 km/h - 4.5 mph /  7.2 km/h
Wind Gust: WindSpeedGustKMH mph /  0 km/h - -
Wind:- - SSW
Pressure: PressurehPa in /  0 hPa 1022.2 in /  34611.7 hPa -
Precipitation: 0.0 in /  0 mm    
Historical Graphs
 
 
Tabular Data for November 20, 2017
Time Temperature Dew Point Pressure Wind Wind Speed Wind Gust Humidity Rainfall Rate (Hourly)
TemperatureC °F /  -17.8 °C DewpointC °F /  -17.8 °C PressurehPa in /  0 hPa Calm     Humidity % HourlyPrecipMM in /  0 mm
00:02 2.2 °F /  -16.6 °C 1.6 °F /  -16.9 °C 1026.6 in /  34760.7 hPa Calm     96 % 0.0 in /  0 mm
00:07 2.2 °F /  -16.6 °C 1.6 °F /  -16.9 °C 1026.6 in /  34760.7 hPa Calm     96 % 0.0 in /  0 mm
00:12 2.2 °F /  -16.6 °C 1.8 °F /  -16.8 °C 1026.6 in /  34760.7 hPa Calm     97 % 0.0 in /  0 mm
00:17 2.2 °F /  -16.6 °C 1.8 °F /  -16.8 °C 1026.6 in /  34760.7 hPa Calm     97 % 0.0 in /  0 mm
00:47 2.4 °F /  -16.4 °C 2.0 °F /  -16.7 °C 1026.3 in /  34750.5 hPa Calm     97 % 0.0 in /  0 mm
00:52 2.4 °F /  -16.4 °C 2.0 °F /  -16.7 °C 1026.3 in /  34750.5 hPa Calm   1.6 mph /  2.6 km/h 97 % 0.0 in /  0 mm
01:02 2.4 °F /  -16.4 °C 2.0 °F /  -16.7 °C 1026.3 in /  34750.5 hPa Calm   1.6 mph /  2.6 km/h 97 % 0.0 in /  0 mm
01:07 2.6 °F /  -16.3 °C 2.2 °F /  -16.6 °C 1026.3 in /  34750.5 hPa Calm   1.6 mph /  2.6 km/h 97 % 0.0 in /  0 mm
01:12 2.8 °F /  -16.2 °C 2.4 °F /  -16.4 °C 1026.3 in /  34750.5 hPa Calm   1.6 mph /  2.6 km/h 97 % 0.0 in /  0 mm
01:17 2.9 °F /  -16.2 °C 2.5 °F /  -16.4 °C 1026.3 in /  34750.5 hPa Calm   1.6 mph /  2.6 km/h 97 % 0.0 in /  0 mm
01:22 3.1 °F /  -16.1 °C 2.7 °F /  -16.3 °C 1026.3 in /  34750.5 hPa Calm   1.6 mph /  2.6 km/h 97 % 0.0 in /  0 mm
01:32 3.3 °F /  -15.9 °C 2.9 °F /  -16.2 °C 1026.3 in /  34750.5 hPa Calm   3.2 mph /  5.1 km/h 97 % 0.0 in /  0 mm
01:37 3.2 °F /  -16 °C 2.8 °F /  -16.2 °C 1026.3 in /  34750.5 hPa West 1.6 mph /  2.6 km/h 3.2 mph /  5.1 km/h 97 % 0.0 in /  0 mm
01:42 3.2 °F /  -16 °C 2.8 °F /  -16.2 °C 1026.3 in /  34750.5 hPa Calm   3.2 mph /  5.1 km/h 97 % 0.0 in /  0 mm
01:47 3.2 °F /  -16 °C 2.8 °F /  -16.2 °C 1026.3 in /  34750.5 hPa Calm   3.2 mph /  5.1 km/h 97 % 0.0 in /  0 mm
02:07 3.7 °F /  -15.7 °C 3.3 °F /  -15.9 °C 1026.3 in /  34750.5 hPa WSW 4.8 mph /  7.7 km/h 4.8 mph /  7.7 km/h 97 % 0.0 in /  0 mm
02:17 4.0 °F /  -15.6 °C 3.7 °F /  -15.7 °C 1026.3 in /  34750.5 hPa WSW 3.2 mph /  5.1 km/h 9.7 mph /  15.6 km/h 98 % 0.0 in /  0 mm
02:22 4.1 °F /  -15.5 °C 3.8 °F /  -15.7 °C 1026.0 in /  34740.4 hPa SW 6.4 mph /  10.3 km/h 11.3 mph /  18.2 km/h 98 % 0.0 in /  0 mm
02:32 4.1 °F /  -15.5 °C 3.7 °F /  -15.7 °C 1026.0 in /  34740.4 hPa SW 3.2 mph /  5.1 km/h 11.3 mph /  18.2 km/h 97 % 0.0 in /  0 mm
02:37 4.2 °F /  -15.4 °C 3.8 °F /  -15.7 °C 1026.0 in /  34740.4 hPa WSW 3.2 mph /  5.1 km/h 11.3 mph /  18.2 km/h 97 % 0.0 in /  0 mm
02:42 3.4 °F /  -15.9 °C 3.0 °F /  -16.1 °C 1026.0 in /  34740.4 hPa WSW 1.6 mph /  2.6 km/h 9.7 mph /  15.6 km/h 97 % 0.0 in /  0 mm
02:52 3.6 °F /  -15.8 °C 3.6 °F /  -15.8 °C 1026.0 in /  34740.4 hPa West 4.8 mph /  7.7 km/h 9.7 mph /  15.6 km/h 100 % 0.0 in /  0 mm
02:57 3.6 °F /  -15.8 °C 3.6 °F /  -15.8 °C 1026.3 in /  34750.5 hPa West 4.8 mph /  7.7 km/h 8.0 mph /  12.9 km/h 100 % 0.0 in /  0 mm
09:12 3.9 °F /  -15.6 °C 3.5 °F /  -15.8 °C 1026.0 in /  34740.4 hPa SSW 3.2 mph /  5.1 km/h -1607.4 mph /  -2586.8 km/h 97 % 0 in /  0 mm
09:17 3.9 °F /  -15.6 °C 3.5 °F /  -15.8 °C 1026.3 in /  34750.5 hPa SW 3.2 mph /  5.1 km/h 12.9 mph /  20.8 km/h 97 % 0.0 in /  0 mm
09:22 4.0 °F /  -15.6 °C 3.6 °F /  -15.8 °C 1026.3 in /  34750.5 hPa SW 3.2 mph /  5.1 km/h 12.9 mph /  20.8 km/h 97 % 0.0 in /  0 mm
09:27 4.1 °F /  -15.5 °C 3.7 °F /  -15.7 °C 1026.3 in /  34750.5 hPa SW 6.4 mph /  10.3 km/h 8.0 mph /  12.9 km/h 97 % 0.0 in /  0 mm
09:32 3.9 °F /  -15.6 °C 3.3 °F /  -15.9 °C 1026.3 in /  34750.5 hPa West 1.6 mph /  2.6 km/h 8.0 mph /  12.9 km/h 96 % 0.0 in /  0 mm
09:37 4.0 °F /  -15.6 °C 3.6 °F /  -15.8 °C 1026.3 in /  34750.5 hPa SSW 1.6 mph /  2.6 km/h 12.9 mph /  20.8 km/h 97 % 0.0 in /  0 mm
09:42 4.1 °F /  -15.5 °C 3.7 °F /  -15.7 °C 1026.3 in /  34750.5 hPa SW 6.4 mph /  10.3 km/h 12.9 mph /  20.8 km/h 97 % 0.0 in /  0 mm
09:52 4.1 °F /  -15.5 °C 3.7 °F /  -15.7 °C 1026.3 in /  34750.5 hPa WSW 6.4 mph /  10.3 km/h 9.7 mph /  15.6 km/h 97 % 0.0 in /  0 mm
09:57 4.1 °F /  -15.5 °C 3.7 °F /  -15.7 °C 1026.0 in /  34740.4 hPa SSW 1.6 mph /  2.6 km/h 9.7 mph /  15.6 km/h 97 % 0.0 in /  0 mm
10:02 4.1 °F /  -15.5 °C 3.7 °F /  -15.7 °C 1026.3 in /  34750.5 hPa SW 4.8 mph /  7.7 km/h 8.0 mph /  12.9 km/h 97 % 0.0 in /  0 mm
10:12 4.1 °F /  -15.5 °C 3.7 °F /  -15.7 °C 1026.3 in /  34750.5 hPa SW 6.4 mph /  10.3 km/h 8.0 mph /  12.9 km/h 97 % 0.0 in /  0 mm
10:17 4.1 °F /  -15.5 °C 3.5 °F /  -15.8 °C 1026.3 in /  34750.5 hPa SW 1.6 mph /  2.6 km/h 8.0 mph /  12.9 km/h 96 % 0.0 in /  0 mm
10:22 4.1 °F /  -15.5 °C 3.7 °F /  -15.7 °C 1026.6 in /  34760.7 hPa SW 4.8 mph /  7.7 km/h 8.0 mph /  12.9 km/h 97 % 0.0 in /  0 mm
10:32 4.3 °F /  -15.4 °C 3.9 °F /  -15.6 °C 1026.3 in /  34750.5 hPa South 1.6 mph /  2.6 km/h 8.0 mph /  12.9 km/h 97 % 0.0 in /  0 mm
10:37 4.3 °F /  -15.4 °C 3.9 °F /  -15.6 °C 1026.3 in /  34750.5 hPa South 1.6 mph /  2.6 km/h 6.4 mph /  10.3 km/h 97 % 0.0 in /  0 mm
10:42 4.4 °F /  -15.3 °C 4.0 °F /  -15.6 °C 1026.3 in /  34750.5 hPa South 4.8 mph /  7.7 km/h 8.0 mph /  12.9 km/h 97 % 0.0 in /  0 mm
10:47 4.4 °F /  -15.3 °C 4.0 °F /  -15.6 °C 1026.6 in /  34760.7 hPa SSW 8.0 mph /  12.9 km/h 8.0 mph /  12.9 km/h 97 % 0.0 in /  0 mm
10:52 4.3 °F /  -15.4 °C 3.9 °F /  -15.6 °C 1026.3 in /  34750.5 hPa SSW 6.4 mph /  10.3 km/h 8.0 mph /  12.9 km/h 97 % 0.0 in /  0 mm
10:57 4.4 °F /  -15.3 °C 4.0 °F /  -15.6 °C 1026.6 in /  34760.7 hPa South 8.0 mph /  12.9 km/h 8.0 mph /  12.9 km/h 97 % 0.0 in /  0 mm
11:02 4.3 °F /  -15.4 °C 3.7 °F /  -15.7 °C 1026.6 in /  34760.7 hPa SSW 4.8 mph /  7.7 km/h 8.0 mph /  12.9 km/h 96 % 0.0 in /  0 mm
11:07 4.3 °F /  -15.4 °C 3.9 °F /  -15.6 °C 1026.6 in /  34760.7 hPa SSW 6.4 mph /  10.3 km/h 9.7 mph /  15.6 km/h 97 % 0.0 in /  0 mm
11:12 4.4 °F /  -15.3 °C 4.0 °F /  -15.6 °C 1026.3 in /  34750.5 hPa SSW 4.8 mph /  7.7 km/h 9.7 mph /  15.6 km/h 97 % 0.0 in /  0 mm
11:17 4.5 °F /  -15.3 °C 4.1 °F /  -15.5 °C 1026.3 in /  34750.5 hPa South 1.6 mph /  2.6 km/h 9.7 mph /  15.6 km/h 97 % 0.0 in /  0 mm
11:42 4.7 °F /  -15.2 °C 4.3 °F /  -15.4 °C 1026.0 in /  34740.4 hPa SE 1.6 mph /  2.6 km/h 11.3 mph /  18.2 km/h 97 % 0.0 in /  0 mm
11:57 4.9 °F /  -15.1 °C 4.5 °F /  -15.3 °C 1026.0 in /  34740.4 hPa SSW 3.2 mph /  5.1 km/h 12.9 mph /  20.8 km/h 97 % 0.0 in /  0 mm
12:12 4.9 °F /  -15.1 °C 4.3 °F /  -15.4 °C 1025.6 in /  34726.8 hPa SSE 6.4 mph /  10.3 km/h 12.9 mph /  20.8 km/h 96 % 0.0 in /  0 mm
12:17 5.1 °F /  -14.9 °C 4.7 °F /  -15.2 °C 1025.6 in /  34726.8 hPa SSW 4.8 mph /  7.7 km/h 11.3 mph /  18.2 km/h 97 % 0.0 in /  0 mm
12:22 5.2 °F /  -14.9 °C 4.8 °F /  -15.1 °C 1025.6 in /  34726.8 hPa SSE 3.2 mph /  5.1 km/h 14.5 mph /  23.3 km/h 97 % 0.0 in /  0 mm
12:32 5.3 °F /  -14.8 °C 4.9 °F /  -15.1 °C 1025.3 in /  34716.7 hPa SSE 1.6 mph /  2.6 km/h 12.9 mph /  20.8 km/h 97 % 0.0 in /  0 mm
12:42 5.4 °F /  -14.8 °C 5.0 °F /  -15 °C 1025.3 in /  34716.7 hPa SSW 1.6 mph /  2.6 km/h 12.9 mph /  20.8 km/h 97 % 0.0 in /  0 mm
12:47 5.6 °F /  -14.7 °C 5.2 °F /  -14.9 °C 1025.3 in /  34716.7 hPa SW 1.6 mph /  2.6 km/h 12.9 mph /  20.8 km/h 97 % 0.0 in /  0 mm
12:52 5.6 °F /  -14.7 °C 5.0 °F /  -15 °C 1025.3 in /  34716.7 hPa SSW 1.6 mph /  2.6 km/h 9.7 mph /  15.6 km/h 96 % 0.0 in /  0 mm
13:02 5.8 °F /  -14.6 °C 5.2 °F /  -14.9 °C 1024.9 in /  34703.1 hPa SSW 6.4 mph /  10.3 km/h 9.7 mph /  15.6 km/h 96 % 0.0 in /  0 mm
13:12 6.1 °F /  -14.4 °C 5.5 °F /  -14.7 °C 1024.9 in /  34703.1 hPa SW 3.2 mph /  5.1 km/h 12.9 mph /  20.8 km/h 96 % 0.0 in /  0 mm
13:17 6.2 °F /  -14.3 °C 5.6 °F /  -14.7 °C 1024.9 in /  34703.1 hPa SSW 4.8 mph /  7.7 km/h 12.9 mph /  20.8 km/h 96 % 0.0 in /  0 mm
13:32 6.5 °F /  -14.2 °C 5.9 °F /  -14.5 °C 1024.9 in /  34703.1 hPa SSW 6.4 mph /  10.3 km/h 11.3 mph /  18.2 km/h 96 % 0.0 in /  0 mm
13:37 6.6 °F /  -14.1 °C 5.9 °F /  -14.5 °C 1024.9 in /  34703.1 hPa SW 9.7 mph /  15.6 km/h 11.3 mph /  18.2 km/h 95 % 0.0 in /  0 mm
13:42 6.7 °F /  -14.1 °C 6.0 °F /  -14.4 °C 1024.6 in /  34693 hPa SW 9.7 mph /  15.6 km/h 11.3 mph /  18.2 km/h 95 % 0.0 in /  0 mm
13:47 6.7 °F /  -14.1 °C 6.0 °F /  -14.4 °C 1024.6 in /  34693 hPa SSW 3.2 mph /  5.1 km/h 11.3 mph /  18.2 km/h 95 % 0.0 in /  0 mm
13:57 7.1 °F /  -13.8 °C 6.2 °F /  -14.3 °C 1024.3 in /  34682.8 hPa SSW 4.8 mph /  7.7 km/h 12.9 mph /  20.8 km/h 94 % 0.0 in /  0 mm
14:12 7.4 °F /  -13.7 °C 6.3 °F /  -14.3 °C 1024.3 in /  34682.8 hPa SSW 4.8 mph /  7.7 km/h 14.5 mph /  23.3 km/h 93 % 0.0 in /  0 mm
14:17 7.5 °F /  -13.6 °C 6.4 °F /  -14.2 °C 1024.3 in /  34682.8 hPa SSE 3.2 mph /  5.1 km/h 14.5 mph /  23.3 km/h 93 % 0.0 in /  0 mm
14:22 7.6 °F /  -13.6 °C 6.5 °F /  -14.2 °C 1024.3 in /  34682.8 hPa SW 4.8 mph /  7.7 km/h 12.9 mph /  20.8 km/h 93 % 0.0 in /  0 mm
14:32 7.8 °F /  -13.4 °C 6.7 °F /  -14.1 °C 1023.9 in /  34669.3 hPa SW 19.3 mph /  31.1 km/h 19.3 mph /  31.1 km/h 93 % 0.0 in /  0 mm
14:42 7.9 °F /  -13.4 °C 6.7 °F /  -14.1 °C 1023.9 in /  34669.3 hPa SW 8.0 mph /  12.9 km/h 19.3 mph /  31.1 km/h 92 % 0.0 in /  0 mm
14:52 8.1 °F /  -13.3 °C 6.9 °F /  -13.9 °C 1023.6 in /  34659.1 hPa South 8.0 mph /  12.9 km/h 16.1 mph /  25.9 km/h 92 % 0.0 in /  0 mm
15:07 8.4 °F /  -13.1 °C 7.0 °F /  -13.9 °C 1023.6 in /  34659.1 hPa SW 14.5 mph /  23.3 km/h 16.1 mph /  25.9 km/h 91 % 0.0 in /  0 mm
15:17 8.4 °F /  -13.1 °C 6.9 °F /  -13.9 °C 1023.6 in /  34659.1 hPa SW 9.7 mph /  15.6 km/h 16.1 mph /  25.9 km/h 90 % 0.0 in /  0 mm
15:27 8.6 °F /  -13 °C 7.1 °F /  -13.8 °C 1023.6 in /  34659.1 hPa SW 3.2 mph /  5.1 km/h 16.1 mph /  25.9 km/h 90 % 0.0 in /  0 mm
15:32 8.7 °F /  -12.9 °C 7.2 °F /  -13.8 °C 1023.6 in /  34659.1 hPa SW 4.8 mph /  7.7 km/h 14.5 mph /  23.3 km/h 90 % 0.0 in /  0 mm
15:42 8.8 °F /  -12.9 °C 7.2 °F /  -13.8 °C 1023.6 in /  34659.1 hPa SSW 11.3 mph /  18.2 km/h 12.9 mph /  20.8 km/h 90 % 0.0 in /  0 mm
15:52 8.8 °F /  -12.9 °C 7.2 °F /  -13.8 °C 1023.6 in /  34659.1 hPa South 3.2 mph /  5.1 km/h 12.9 mph /  20.8 km/h 90 % 0.0 in /  0 mm
16:02 8.6 °F /  -13 °C 7.2 °F /  -13.8 °C 1023.6 in /  34659.1 hPa SSW 1.6 mph /  2.6 km/h 12.9 mph /  20.8 km/h 91 % 0.0 in /  0 mm
16:12 8.6 °F /  -13 °C 7.2 °F /  -13.8 °C 1023.6 in /  34659.1 hPa SSW 6.4 mph /  10.3 km/h 14.5 mph /  23.3 km/h 91 % 0.0 in /  0 mm
16:22 8.4 °F /  -13.1 °C 7.0 °F /  -13.9 °C 1023.6 in /  34659.1 hPa SSW 6.4 mph /  10.3 km/h 14.5 mph /  23.3 km/h 91 % 0.0 in /  0 mm
16:27 8.4 °F /  -13.1 °C 7.0 °F /  -13.9 °C 1023.6 in /  34659.1 hPa South 9.7 mph /  15.6 km/h 11.3 mph /  18.2 km/h 91 % 0.0 in /  0 mm
16:32 8.4 °F /  -13.1 °C 7.0 °F /  -13.9 °C 1023.2 in /  34645.6 hPa SW 9.7 mph /  15.6 km/h 14.5 mph /  23.3 km/h 91 % 0.0 in /  0 mm
16:42 8.2 °F /  -13.2 °C 7.0 °F /  -13.9 °C 1023.6 in /  34659.1 hPa SSW 4.8 mph /  7.7 km/h 14.5 mph /  23.3 km/h 92 % 0.0 in /  0 mm
16:47 8.2 °F /  -13.2 °C 7.0 °F /  -13.9 °C 1023.6 in /  34659.1 hPa SSW 4.8 mph /  7.7 km/h 14.5 mph /  23.3 km/h 92 % 0.0 in /  0 mm
16:52 8.1 °F /  -13.3 °C 6.9 °F /  -13.9 °C 1023.2 in /  34645.6 hPa SW 3.2 mph /  5.1 km/h 11.3 mph /  18.2 km/h 92 % 0.0 in /  0 mm
17:02 7.9 °F /  -13.4 °C 6.7 °F /  -14.1 °C 1023.2 in /  34645.6 hPa SSW 3.2 mph /  5.1 km/h 8.0 mph /  12.9 km/h 92 % 0.0 in /  0 mm
17:07 7.8 °F /  -13.4 °C 6.6 °F /  -14.1 °C 1023.2 in /  34645.6 hPa South 3.2 mph /  5.1 km/h 8.0 mph /  12.9 km/h 92 % 0.0 in /  0 mm
17:17 7.7 °F /  -13.5 °C 6.6 °F /  -14.1 °C 1023.2 in /  34645.6 hPa SE 1.6 mph /  2.6 km/h 4.8 mph /  7.7 km/h 93 % 0.0 in /  0 mm
17:22 7.6 °F /  -13.6 °C 6.5 °F /  -14.2 °C 1023.2 in /  34645.6 hPa SSE 4.8 mph /  7.7 km/h 6.4 mph /  10.3 km/h 93 % 0.0 in /  0 mm
17:27 7.5 °F /  -13.6 °C 6.4 °F /  -14.2 °C 1023.2 in /  34645.6 hPa SSW 4.8 mph /  7.7 km/h 8.0 mph /  12.9 km/h 93 % 0.0 in /  0 mm
17:32 7.4 °F /  -13.7 °C 6.3 °F /  -14.3 °C 1022.9 in /  34635.4 hPa Calm   8.0 mph /  12.9 km/h 93 % 0.0 in /  0 mm
17:37 7.3 °F /  -13.7 °C 6.2 °F /  -14.3 °C 1022.9 in /  34635.4 hPa SSE 3.2 mph /  5.1 km/h 8.0 mph /  12.9 km/h 93 % 0.0 in /  0 mm
17:47 7.2 °F /  -13.8 °C 6.3 °F /  -14.3 °C 1022.9 in /  34635.4 hPa SSE 1.6 mph /  2.6 km/h 6.4 mph /  10.3 km/h 94 % 0.0 in /  0 mm
17:52 7.1 °F /  -13.8 °C 6.2 °F /  -14.3 °C 1022.9 in /  34635.4 hPa South 1.6 mph /  2.6 km/h 8.0 mph /  12.9 km/h 94 % 0.0 in /  0 mm
17:57 7.0 °F /  -13.9 °C 6.1 °F /  -14.4 °C 1022.9 in /  34635.4 hPa Calm   8.0 mph /  12.9 km/h 94 % 0.0 in /  0 mm
18:12 6.8 °F /  -14 °C 5.9 °F /  -14.5 °C 1022.9 in /  34635.4 hPa South 3.2 mph /  5.1 km/h 4.8 mph /  7.7 km/h 94 % 0.0 in /  0 mm
18:17 6.7 °F /  -14.1 °C 5.8 °F /  -14.6 °C 1022.9 in /  34635.4 hPa Calm   4.8 mph /  7.7 km/h 94 % 0.0 in /  0 mm
18:32 6.4 °F /  -14.2 °C 5.7 °F /  -14.6 °C 1022.6 in /  34625.2 hPa SSW 3.2 mph /  5.1 km/h 4.8 mph /  7.7 km/h 95 % 0.0 in /  0 mm
18:37 6.4 °F /  -14.2 °C 5.7 °F /  -14.6 °C 1022.9 in /  34635.4 hPa SSW 1.6 mph /  2.6 km/h 4.8 mph /  7.7 km/h 95 % 0.0 in /  0 mm
18:42 6.4 °F /  -14.2 °C 5.7 °F /  -14.6 °C 1022.6 in /  34625.2 hPa SW 3.2 mph /  5.1 km/h 6.4 mph /  10.3 km/h 95 % 0.0 in /  0 mm
18:47 6.4 °F /  -14.2 °C 5.8 °F /  -14.6 °C 1022.6 in /  34625.2 hPa SSW 4.8 mph /  7.7 km/h 6.4 mph /  10.3 km/h 96 % 0.0 in /  0 mm
18:57 6.7 °F /  -14.1 °C 6.1 °F /  -14.4 °C 1022.6 in /  34625.2 hPa SSW 6.4 mph /  10.3 km/h 9.7 mph /  15.6 km/h 96 % 0.0 in /  0 mm
19:02 6.8 °F /  -14 °C 6.2 °F /  -14.3 °C 1022.9 in /  34635.4 hPa SSW 4.8 mph /  7.7 km/h 9.7 mph /  15.6 km/h 96 % 0.0 in /  0 mm
19:17 6.9 °F /  -13.9 °C 6.3 °F /  -14.3 °C 1022.6 in /  34625.2 hPa SSW 4.8 mph /  7.7 km/h 9.7 mph /  15.6 km/h 96 % 0.0 in /  0 mm
19:27 6.9 °F /  -13.9 °C 6.2 °F /  -14.3 °C 1022.6 in /  34625.2 hPa SW 4.8 mph /  7.7 km/h 11.3 mph /  18.2 km/h 95 % 0.0 in /  0 mm
19:37 7.0 °F /  -13.9 °C 6.3 °F /  -14.3 °C 1022.6 in /  34625.2 hPa SSW 4.8 mph /  7.7 km/h 9.7 mph /  15.6 km/h 95 % 0.0 in /  0 mm
19:42 7.0 °F /  -13.9 °C 6.3 °F /  -14.3 °C 1022.6 in /  34625.2 hPa SW 6.4 mph /  10.3 km/h 9.7 mph /  15.6 km/h 95 % 0.0 in /  0 mm
19:52 7.0 °F /  -13.9 °C 6.3 °F /  -14.3 °C 1022.6 in /  34625.2 hPa SSW 3.2 mph /  5.1 km/h 9.7 mph /  15.6 km/h 95 % 0.0 in /  0 mm
19:57 7.1 °F /  -13.8 °C 6.4 °F /  -14.2 °C 1022.6 in /  34625.2 hPa SW 8.0 mph /  12.9 km/h 11.3 mph /  18.2 km/h 95 % 0.0 in /  0 mm
20:02 7.1 °F /  -13.8 °C 6.4 °F /  -14.2 °C 1022.6 in /  34625.2 hPa South 4.8 mph /  7.7 km/h 11.3 mph /  18.2 km/h 95 % 0.0 in /  0 mm
20:07 7.1 °F /  -13.8 °C 6.2 °F /  -14.3 °C 1022.6 in /  34625.2 hPa SW 6.4 mph /  10.3 km/h 11.3 mph /  18.2 km/h 94 % 0.0 in /  0 mm
20:12 7.1 °F /  -13.8 °C 6.2 °F /  -14.3 °C 1022.6 in /  34625.2 hPa SW 4.8 mph /  7.7 km/h 11.3 mph /  18.2 km/h 94 % 0.0 in /  0 mm
20:22 7.1 °F /  -13.8 °C 6.2 °F /  -14.3 °C 1022.6 in /  34625.2 hPa SSW 4.8 mph /  7.7 km/h 11.3 mph /  18.2 km/h 94 % 0.0 in /  0 mm
20:27 7.0 °F /  -13.9 °C 6.1 °F /  -14.4 °C 1022.6 in /  34625.2 hPa SSW 6.4 mph /  10.3 km/h 12.9 mph /  20.8 km/h 94 % 0.0 in /  0 mm
20:32 7.0 °F /  -13.9 °C 6.1 °F /  -14.4 °C 1022.6 in /  34625.2 hPa SSW 4.8 mph /  7.7 km/h 12.9 mph /  20.8 km/h 94 % 0.0 in /  0 mm
20:42 6.9 °F /  -13.9 °C 6.0 °F /  -14.4 °C 1022.6 in /  34625.2 hPa SW 6.4 mph /  10.3 km/h 12.9 mph /  20.8 km/h 94 % 0.0 in /  0 mm
20:52 6.9 °F /  -13.9 °C 5.8 °F /  -14.6 °C 1022.6 in /  34625.2 hPa SW 8.0 mph /  12.9 km/h 11.3 mph /  18.2 km/h 93 % 0.0 in /  0 mm
20:57 6.9 °F /  -13.9 °C 5.8 °F /  -14.6 °C 1022.6 in /  34625.2 hPa SW 6.4 mph /  10.3 km/h 11.3 mph /  18.2 km/h 93 % 0.0 in /  0 mm
21:12 6.9 °F /  -13.9 °C 5.8 °F /  -14.6 °C 1022.6 in /  34625.2 hPa SW 9.7 mph /  15.6 km/h 12.9 mph /  20.8 km/h 93 % 0.0 in /  0 mm
21:17 6.9 °F /  -13.9 °C 5.8 °F /  -14.6 °C 1022.6 in /  34625.2 hPa WSW 8.0 mph /  12.9 km/h 12.9 mph /  20.8 km/h 93 % 0.0 in /  0 mm
21:27 7.0 °F /  -13.9 °C 5.9 °F /  -14.5 °C 1022.6 in /  34625.2 hPa SW 8.0 mph /  12.9 km/h 16.1 mph /  25.9 km/h 93 % 0.0 in /  0 mm
21:32 7.0 °F /  -13.9 °C 5.9 °F /  -14.5 °C 1022.6 in /  34625.2 hPa SW 8.0 mph /  12.9 km/h 16.1 mph /  25.9 km/h 93 % 0.0 in /  0 mm
21:42 7.1 °F /  -13.8 °C 6.0 °F /  -14.4 °C 1022.6 in /  34625.2 hPa WSW 6.4 mph /  10.3 km/h 11.3 mph /  18.2 km/h 93 % 0.0 in /  0 mm
21:47 7.1 °F /  -13.8 °C 6.0 °F /  -14.4 °C 1022.6 in /  34625.2 hPa SW 11.3 mph /  18.2 km/h 11.3 mph /  18.2 km/h 93 % 0.0 in /  0 mm
21:52 7.2 °F /  -13.8 °C 6.1 °F /  -14.4 °C 1022.6 in /  34625.2 hPa SW 9.7 mph /  15.6 km/h 14.5 mph /  23.3 km/h 93 % 0.0 in /  0 mm
21:57 7.2 °F /  -13.8 °C 6.1 °F /  -14.4 °C 1022.6 in /  34625.2 hPa WSW 4.8 mph /  7.7 km/h 14.5 mph /  23.3 km/h 93 % 0.0 in /  0 mm
22:02 7.2 °F /  -13.8 °C 6.1 °F /  -14.4 °C 1022.6 in /  34625.2 hPa WSW 9.7 mph /  15.6 km/h 14.5 mph /  23.3 km/h 93 % 0.0 in /  0 mm
22:12 7.2 °F /  -13.8 °C 6.1 °F /  -14.4 °C 1022.6 in /  34625.2 hPa SSW 9.7 mph /  15.6 km/h 16.1 mph /  25.9 km/h 93 % 0.0 in /  0 mm
22:17 7.2 °F /  -13.8 °C 6.0 °F /  -14.4 °C 1022.6 in /  34625.2 hPa WSW 8.0 mph /  12.9 km/h 16.1 mph /  25.9 km/h 92 % 0.0 in /  0 mm
22:22 7.2 °F /  -13.8 °C 6.0 °F /  -14.4 °C 1022.6 in /  34625.2 hPa SW 9.7 mph /  15.6 km/h 16.1 mph /  25.9 km/h 92 % 0.0 in /  0 mm
22:32 7.2 °F /  -13.8 °C 6.1 °F /  -14.4 °C 1022.6 in /  34625.2 hPa WSW 6.4 mph /  10.3 km/h 14.5 mph /  23.3 km/h 93 % 0.0 in /  0 mm
22:42 7.1 °F /  -13.8 °C 6.0 °F /  -14.4 °C 1022.6 in /  34625.2 hPa SW 6.4 mph /  10.3 km/h 12.9 mph /  20.8 km/h 93 % 0.0 in /  0 mm
22:52 7.0 °F /  -13.9 °C 5.9 °F /  -14.5 °C 1022.6 in /  34625.2 hPa SSW 3.2 mph /  5.1 km/h 12.9 mph /  20.8 km/h 93 % 0.0 in /  0 mm
23:02 6.8 °F /  -14 °C 5.7 °F /  -14.6 °C 1022.6 in /  34625.2 hPa SW 3.2 mph /  5.1 km/h 9.7 mph /  15.6 km/h 93 % 0.0 in /  0 mm
23:22 6.6 °F /  -14.1 °C 5.7 °F /  -14.6 °C 1022.2 in /  34611.7 hPa SW 4.8 mph /  7.7 km/h 11.3 mph /  18.2 km/h 94 % 0.0 in /  0 mm
23:27 6.5 °F /  -14.2 °C 5.6 °F /  -14.7 °C 1022.2 in /  34611.7 hPa SW 4.8 mph /  7.7 km/h 11.3 mph /  18.2 km/h 94 % 0.0 in /  0 mm
23:32 6.5 °F /  -14.2 °C 5.6 °F /  -14.7 °C 1022.2 in /  34611.7 hPa SSW 4.8 mph /  7.7 km/h 11.3 mph /  18.2 km/h 94 % 0.0 in /  0 mm
23:37 6.4 °F /  -14.2 °C 5.5 °F /  -14.7 °C 1022.6 in /  34625.2 hPa SSW 1.6 mph /  2.6 km/h 9.7 mph /  15.6 km/h 94 % 0.0 in /  0 mm
23:42 6.4 °F /  -14.2 °C 5.5 °F /  -14.7 °C 1022.2 in /  34611.7 hPa SSW 3.2 mph /  5.1 km/h 9.7 mph /  15.6 km/h 94 % 0.0 in /  0 mm
23:52 6.3 °F /  -14.3 °C 5.4 °F /  -14.8 °C 1022.6 in /  34625.2 hPa SW 4.8 mph /  7.7 km/h 8.0 mph /  12.9 km/h 94 % 0.0 in /  0 mm
23:57 6.3 °F /  -14.3 °C 5.6 °F /  -14.7 °C 1022.6 in /  34625.2 hPa SSW 1.6 mph /  2.6 km/h 8.0 mph /  12.9 km/h 95 % 0.0 in /  0 mm
Meteo18
Compliments of Weather Underground - 4 mb

Script developed by  Jim McMurry - jmcmurry@mwt.net Adapted for the template by  Wim van der Kuil - Leuven-Template.eu

You find our weather info also at:

European Weather Network

Weather Underground

Equipment we use:

Weather-station
Davis Vue

Weather-program
Meteobridge

Weather-server
Raspberry PI 2 B+

Provider
1 and 1

Davis Vue

Meteobridge

Raspberry PI 2 B+

1 and 1